createdAt,value
2018-12-03T00:01:31.679Z,51.30
2018-12-03T00:04:09.705Z,50.07
2018-12-03T00:06:38.657Z,51.93
2018-12-03T00:09:08.904Z,48.63
2018-12-03T00:11:38.225Z,49.83
2018-12-03T00:14:07.271Z,51.63
2018-12-03T00:16:36.151Z,47.33
2018-12-03T00:19:05.319Z,49.07
2018-12-03T00:21:34.270Z,52.30
2018-12-03T00:24:03.295Z,45.27
2018-12-03T00:26:32.255Z,47.27
2018-12-03T00:29:01.209Z,46.80
2018-12-03T00:31:30.141Z,46.90
2018-12-03T00:33:59.060Z,49.53
2018-12-03T00:36:27.988Z,52.73
2018-12-03T00:38:57.038Z,50.97
2018-12-03T00:41:26.812Z,46.77
2018-12-03T00:43:55.814Z,48.23
2018-12-03T00:46:24.736Z,51.77
2018-12-03T00:48:53.664Z,49.20
2018-12-03T00:51:22.567Z,47.03
2018-12-03T00:53:51.462Z,47.00
2018-12-03T00:56:20.343Z,49.10
2018-12-03T00:58:49.297Z,50.37
2018-12-03T01:01:18.217Z,50.43
2018-12-03T01:03:47.152Z,50.63
2018-12-03T01:06:16.212Z,47.87
2018-12-03T01:08:45.118Z,47.53
2018-12-03T01:11:14.090Z,48.70
2018-12-03T01:13:43.391Z,49.70
2018-12-03T01:16:13.107Z,48.60
2018-12-03T01:18:41.986Z,49.73
2018-12-03T01:21:10.930Z,45.93
2018-12-03T01:23:39.820Z,46.73
2018-12-03T01:26:08.685Z,49.07
2018-12-03T01:28:37.622Z,43.03
2018-12-03T01:31:06.578Z,46.60
2018-12-03T01:33:35.754Z,44.77
2018-12-03T01:36:04.672Z,45.53
2018-12-03T01:38:33.574Z,44.63
2018-12-03T01:41:02.504Z,46.33
2018-12-03T01:43:31.428Z,48.97
2018-12-03T01:46:00.298Z,45.70
2018-12-03T01:48:29.214Z,46.90
2018-12-03T01:50:58.110Z,43.07
2018-12-03T01:53:26.995Z,47.33
2018-12-03T01:55:55.914Z,46.87
2018-12-03T01:58:24.800Z,49.90
2018-12-03T02:00:53.718Z,43.23
2018-12-03T02:03:22.623Z,47.23
2018-12-03T02:05:51.633Z,45.47
2018-12-03T02:08:20.586Z,53.57
2018-12-03T02:10:49.523Z,44.00
2018-12-03T02:13:18.403Z,46.83
2018-12-03T02:15:47.323Z,47.23
2018-12-03T02:18:16.187Z,43.67
2018-12-03T02:20:45.458Z,45.97
2018-12-03T02:23:15.337Z,46.40
2018-12-03T02:25:44.217Z,50.83
2018-12-03T02:28:13.130Z,44.37
2018-12-03T02:30:42.004Z,44.97
2018-12-03T02:33:10.904Z,45.13
2018-12-03T02:35:39.820Z,42.53
2018-12-03T02:38:08.761Z,45.27
2018-12-03T02:40:37.639Z,43.30
2018-12-03T02:43:07.054Z,43.53
2018-12-03T02:45:36.044Z,43.50
2018-12-03T02:48:05.063Z,46.00
2018-12-03T02:50:33.984Z,44.63
2018-12-03T02:53:02.904Z,44.53
2018-12-03T02:55:31.776Z,44.70
2018-12-03T02:58:00.685Z,43.23
2018-12-03T03:00:29.575Z,42.00
2018-12-03T03:02:58.536Z,44.87
2018-12-03T03:05:27.428Z,45.40
2018-12-03T03:07:56.364Z,42.57
2018-12-03T03:10:25.297Z,50.80
2018-12-03T03:12:54.165Z,43.53
2018-12-03T03:15:23.052Z,41.40
2018-12-03T03:17:52.008Z,44.97
2018-12-03T03:20:20.923Z,44.67
2018-12-03T03:22:49.821Z,46.33
2018-12-03T03:25:18.741Z,44.70
2018-12-03T03:27:47.597Z,47.60
2018-12-03T03:30:16.681Z,42.37
2018-12-03T03:32:45.549Z,44.37
2018-12-03T03:35:15.037Z,44.23
2018-12-03T03:37:43.959Z,45.27
2018-12-03T03:40:17.581Z,47.13
2018-12-03T03:42:47.650Z,47.03
2018-12-03T03:45:20.218Z,48.27
2018-12-03T03:47:49.130Z,45.53
2018-12-03T03:50:18.024Z,45.40
2018-12-03T03:52:46.952Z,44.50
2018-12-03T03:55:15.820Z,45.40
2018-12-03T03:57:44.700Z,47.93
2018-12-03T04:00:14.639Z,44.77
2018-12-03T04:02:43.499Z,49.97
2018-12-03T04:05:14.909Z,46.50
2018-12-03T04:07:45.111Z,45.27
2018-12-03T04:10:14.797Z,50.23
2018-12-03T04:12:44.921Z,49.13
2018-12-03T04:15:14.741Z,49.17
2018-12-03T04:17:43.643Z,51.57
2018-12-03T04:20:18.561Z,51.47
2018-12-03T04:22:53.389Z,50.87
2018-12-03T04:25:22.546Z,50.30
2018-12-03T04:27:51.791Z,51.00
2018-12-03T04:30:21.658Z,47.87
2018-12-03T04:32:51.234Z,54.37
2018-12-03T04:35:20.158Z,51.83
2018-12-03T04:37:49.056Z,55.37
2018-12-03T04:40:18.129Z,55.83
2018-12-03T04:42:46.984Z,50.00
2018-12-03T04:45:16.957Z,52.73
2018-12-03T04:47:46.329Z,54.80
2018-12-03T04:50:17.546Z,51.73
2018-12-03T04:52:47.337Z,54.13
2018-12-03T04:55:17.530Z,54.13
2018-12-03T04:57:46.399Z,56.37
2018-12-03T05:00:17.265Z,56.07
2018-12-03T05:02:47.392Z,58.87
2018-12-03T05:05:16.275Z,54.03
2018-12-03T05:07:45.380Z,52.80
2018-12-03T05:10:20.552Z,55.13
2018-12-03T05:12:50.563Z,57.37
2018-12-03T05:15:19.465Z,55.03
2018-12-03T05:17:48.445Z,57.50
2018-12-03T05:20:25.079Z,56.90
2018-12-03T05:22:54.050Z,56.90
2018-12-03T05:25:22.964Z,57.23
2018-12-03T05:27:51.852Z,58.53
2018-12-03T05:30:20.804Z,59.70
2018-12-03T05:32:49.737Z,54.87
2018-12-03T05:35:21.401Z,56.57
2018-12-03T05:37:50.320Z,59.03
2018-12-03T05:40:20.745Z,58.03
2018-12-03T05:42:50.224Z,58.33
2018-12-03T05:45:19.129Z,56.50
2018-12-03T05:47:48.047Z,57.10
2018-12-03T05:50:17.128Z,58.80
2018-12-03T05:52:47.095Z,57.53
2018-12-03T05:55:16.414Z,59.37
2018-12-03T05:57:46.259Z,58.33
2018-12-03T06:00:18.429Z,59.77
2018-12-03T06:02:47.464Z,59.13
2018-12-03T06:05:16.635Z,59.90
2018-12-03T06:07:45.591Z,59.13
2018-12-03T06:10:16.353Z,59.20
2018-12-03T06:12:45.289Z,66.70
2018-12-03T06:15:17.454Z,58.93
2018-12-03T06:17:47.104Z,60.87
2018-12-03T06:20:19.160Z,55.80
2018-12-03T06:22:48.862Z,62.30
2018-12-03T06:25:21.468Z,56.70
2018-12-03T06:27:50.880Z,59.13
2018-12-03T06:30:21.566Z,58.07
2018-12-03T06:32:50.492Z,58.53
2018-12-03T06:35:19.803Z,62.80
2018-12-03T06:37:49.029Z,53.90
2018-12-03T06:40:22.110Z,59.47
2018-12-03T06:42:51.064Z,54.90
2018-12-03T06:45:21.161Z,62.07
2018-12-03T06:47:56.522Z,57.53
2018-12-03T06:50:25.489Z,58.17
2018-12-03T06:52:54.382Z,59.57
2018-12-03T06:55:23.313Z,64.20
2018-12-03T06:57:52.302Z,66.90
2018-12-03T07:00:22.510Z,64.57
2018-12-03T07:02:51.481Z,70.73
2018-12-03T07:05:20.414Z,78.07
2018-12-03T07:07:50.984Z,73.57
2018-12-03T07:10:20.813Z,78.97
2018-12-03T07:12:54.393Z,78.33
2018-12-03T07:15:23.517Z,68.87
2018-12-03T07:17:55.170Z,71.47
2018-12-03T07:20:24.097Z,68.27
2018-12-03T07:22:53.054Z,64.97
2018-12-03T07:25:22.135Z,69.47
2018-12-03T07:27:51.093Z,65.37
2018-12-03T07:30:24.888Z,68.83
2018-12-03T07:32:54.096Z,70.33
2018-12-03T07:35:23.895Z,66.90
2018-12-03T07:37:54.033Z,66.70
2018-12-03T07:40:22.940Z,67.03
2018-12-03T07:42:51.839Z,62.70
2018-12-03T07:45:21.775Z,58.90
2018-12-03T07:47:50.679Z,62.10
2018-12-03T07:50:20.927Z,76.00
2018-12-03T07:52:49.945Z,63.53
2018-12-03T07:55:20.906Z,60.57
2018-12-03T07:57:54.752Z,64.27
2018-12-03T08:01:02.098Z,59.10
2018-12-03T08:03:31.065Z,58.63
2018-12-03T08:06:00.811Z,57.00
2018-12-03T08:08:31.457Z,57.57
2018-12-03T08:11:01.614Z,55.33
2018-12-03T08:13:30.716Z,51.60
2018-12-03T08:15:59.574Z,54.17
2018-12-03T08:18:28.519Z,56.00
2018-12-03T08:21:00.210Z,51.93
2018-12-03T08:23:41.137Z,49.77
2018-12-03T08:26:10.924Z,46.77
2018-12-03T08:28:39.872Z,49.10
2018-12-03T08:31:08.775Z,49.03
2018-12-03T08:33:37.974Z,52.90
2018-12-03T08:36:08.158Z,56.87
2018-12-03T08:38:37.392Z,52.97
2018-12-03T08:41:07.881Z,46.70
2018-12-03T08:43:36.830Z,50.43
2018-12-03T08:46:08.002Z,47.67
2018-12-03T08:48:38.833Z,45.10
2018-12-03T08:51:08.362Z,46.80
2018-12-03T08:53:37.863Z,45.60
2018-12-03T08:56:07.243Z,46.20
2018-12-03T08:58:36.143Z,45.77
2018-12-03T09:01:09.845Z,47.23
2018-12-03T09:03:38.738Z,47.33
2018-12-03T09:06:10.285Z,47.43
2018-12-03T09:08:39.188Z,46.13
2018-12-03T09:11:10.716Z,47.30
2018-12-03T09:13:39.567Z,46.33
2018-12-03T09:16:08.499Z,47.77
2018-12-03T09:18:39.157Z,50.50
2018-12-03T09:21:13.469Z,45.17
2018-12-03T09:23:43.731Z,47.07
2018-12-03T09:26:13.599Z,57.90
2018-12-03T09:28:42.657Z,64.17
2018-12-03T09:31:21.155Z,70.37
2018-12-03T09:33:54.709Z,52.57
2018-12-03T09:36:24.439Z,49.20
2018-12-03T09:39:16.877Z,61.37
2018-12-03T09:41:47.204Z,54.03
2018-12-03T09:44:16.087Z,46.20
2018-12-03T09:46:44.935Z,48.23
2018-12-03T09:49:13.825Z,40.93
2018-12-03T09:51:42.666Z,39.53
2018-12-03T09:54:12.003Z,40.63
2018-12-03T09:56:43.614Z,54.10
2018-12-03T09:59:17.274Z,38.47
2018-12-03T10:01:47.576Z,37.60
2018-12-03T10:04:21.810Z,44.47
2018-12-03T10:06:50.785Z,41.97
2018-12-03T10:09:19.656Z,41.70
2018-12-03T10:11:48.532Z,77.43
2018-12-03T10:14:19.929Z,40.33
2018-12-03T10:16:48.759Z,59.03
2018-12-03T10:19:17.622Z,61.57
2018-12-03T10:21:47.396Z,39.00
2018-12-03T10:24:16.889Z,41.87
2018-12-03T10:26:46.685Z,39.37
2018-12-03T10:29:17.680Z,34.90
2018-12-03T10:31:46.596Z,38.20
2018-12-03T10:34:18.680Z,32.10
2018-12-03T10:36:51.968Z,35.00
2018-12-03T10:39:25.470Z,34.77
2018-12-03T10:42:28.865Z,38.67
2018-12-03T10:44:57.742Z,38.40
2018-12-03T10:47:26.625Z,35.03
2018-12-03T10:49:55.536Z,36.60
2018-12-03T10:52:25.051Z,38.63
2018-12-03T10:54:54.252Z,32.90
2018-12-03T10:57:24.016Z,34.97
2018-12-03T10:59:55.320Z,39.97
2018-12-03T11:02:37.339Z,42.43
2018-12-03T11:05:13.043Z,40.00
2018-12-03T11:07:42.108Z,32.20
2018-12-03T11:10:11.162Z,36.50
2018-12-03T11:12:40.204Z,31.30
2018-12-03T11:15:14.887Z,35.17
2018-12-03T11:17:43.812Z,34.53
2018-12-03T11:20:12.717Z,30.90
2018-12-03T11:22:41.928Z,30.23
2018-12-03T11:25:14.348Z,32.30
2018-12-03T11:27:45.369Z,33.30
2018-12-03T11:30:14.765Z,36.83
2018-12-03T11:32:43.757Z,35.33
2018-12-03T11:35:13.216Z,36.30
2018-12-03T11:37:44.738Z,34.13
2018-12-03T11:40:25.124Z,33.40
2018-12-03T11:42:55.129Z,35.57
2018-12-03T11:45:23.991Z,37.13
2018-12-03T11:47:52.987Z,35.20
2018-12-03T11:50:21.926Z,31.57
2018-12-03T11:52:50.798Z,31.33
2018-12-03T11:55:19.658Z,29.53
2018-12-03T11:57:48.553Z,31.73
2018-12-03T12:00:17.430Z,35.00
2018-12-03T12:02:46.425Z,37.67
2018-12-03T12:05:15.466Z,33.87
2018-12-03T12:07:44.308Z,32.60
2018-12-03T12:10:13.358Z,36.40
2018-12-03T12:12:42.244Z,32.93
2018-12-03T12:15:12.932Z,33.67
2018-12-03T12:17:41.808Z,32.50
2018-12-03T12:20:11.389Z,37.53
2018-12-03T12:22:40.295Z,35.50
2018-12-03T12:25:12.216Z,33.70
2018-12-03T12:27:43.817Z,33.27
2018-12-03T12:30:14.913Z,35.73
2018-12-03T12:32:43.816Z,36.37
2018-12-03T12:35:12.827Z,36.73
2018-12-03T12:37:41.738Z,30.67
2018-12-03T12:40:12.532Z,35.20
2018-12-03T12:42:42.188Z,32.97
2018-12-03T12:45:15.951Z,33.13
2018-12-03T12:47:44.858Z,33.83
2018-12-03T12:50:16.480Z,33.23
2018-12-03T12:52:45.388Z,34.30
2018-12-03T12:55:14.242Z,32.63
2018-12-03T12:57:43.136Z,35.77
2018-12-03T13:00:18.487Z,34.43
2018-12-03T13:02:49.840Z,35.20
2018-12-03T13:05:18.773Z,46.00
2018-12-03T13:07:47.640Z,46.00
2018-12-03T13:10:17.347Z,45.07
2018-12-03T13:12:49.147Z,38.10
2018-12-03T13:15:18.001Z,33.27
2018-12-03T13:17:47.919Z,35.83
2018-12-03T13:20:18.775Z,37.13
2018-12-03T13:22:47.739Z,34.10
2018-12-03T13:25:18.392Z,44.10
2018-12-03T13:27:48.041Z,41.80
2018-12-03T13:30:17.539Z,44.17
2018-12-03T13:32:47.641Z,43.83
2018-12-03T13:35:16.543Z,41.53
2018-12-03T13:37:45.432Z,42.57
2018-12-03T13:40:17.861Z,45.83
2018-12-03T13:42:47.714Z,46.20
2018-12-03T13:45:19.604Z,41.80
2018-12-03T13:47:48.685Z,42.10
2018-12-03T13:50:17.945Z,36.83
2018-12-03T13:52:46.922Z,42.27
2018-12-03T13:55:18.522Z,42.80
2018-12-03T13:57:47.404Z,40.90
2018-12-03T14:00:21.008Z,43.30
2018-12-03T14:02:55.799Z,41.27
2018-12-03T14:05:25.103Z,42.80
2018-12-03T14:07:59.220Z,40.07
2018-12-03T14:10:39.305Z,46.40
2018-12-03T14:13:17.371Z,66.47
2018-12-03T14:16:01.738Z,71.97
2018-12-03T14:18:35.943Z,61.47
2018-12-03T14:21:11.881Z,56.30
2018-12-03T14:23:40.852Z,43.20
2018-12-03T14:26:09.738Z,42.47
2018-12-03T14:28:38.691Z,45.40
2018-12-03T14:31:07.562Z,45.50
2018-12-03T14:33:36.449Z,50.27
2018-12-03T14:36:05.480Z,52.87
2018-12-03T14:38:34.378Z,50.53
2018-12-03T14:41:03.275Z,47.90
2018-12-03T14:43:32.179Z,49.40
2018-12-03T14:46:01.065Z,47.63
2018-12-03T14:48:29.939Z,52.63
2018-12-03T14:50:58.847Z,54.97
2018-12-03T14:53:27.771Z,51.30
2018-12-03T14:55:56.648Z,54.30
2018-12-03T14:58:25.986Z,54.10
2018-12-03T15:00:55.779Z,64.33
2018-12-03T15:03:24.641Z,67.27
2018-12-03T15:05:53.499Z,70.57
2018-12-03T15:08:22.404Z,67.67
2018-12-03T15:10:51.293Z,61.73
2018-12-03T15:13:20.553Z,62.07
2018-12-03T15:15:49.420Z,59.20
2018-12-03T15:18:18.344Z,66.03
2018-12-03T15:20:50.332Z,70.60
2018-12-03T15:23:19.191Z,61.43
2018-12-03T15:25:48.491Z,58.57
2018-12-03T15:28:17.382Z,65.73
2018-12-03T15:30:46.266Z,59.90
2018-12-03T15:33:15.117Z,63.93
2018-12-03T15:35:44.029Z,64.70
2018-12-03T15:38:12.945Z,63.43
2018-12-03T15:40:41.802Z,66.70
2018-12-03T15:43:10.722Z,59.87
2018-12-03T15:45:39.580Z,64.20
2018-12-03T15:48:08.447Z,63.00
2018-12-03T15:50:37.392Z,64.10
2018-12-03T15:53:06.243Z,63.17
2018-12-03T15:55:35.128Z,64.60
2018-12-03T15:58:04.046Z,66.87
2018-12-03T16:00:32.965Z,65.93
2018-12-03T16:03:01.861Z,71.67
2018-12-03T16:05:30.731Z,67.13
2018-12-03T16:07:59.599Z,67.60
2018-12-03T16:10:28.754Z,69.97
2018-12-03T16:12:57.653Z,70.17
2018-12-03T16:15:26.896Z,67.03
2018-12-03T16:17:56.513Z,74.50
2018-12-03T16:20:25.408Z,76.40
2018-12-03T16:22:54.869Z,72.37
2018-12-03T16:25:23.799Z,73.77
2018-12-03T16:27:52.672Z,68.13
2018-12-03T16:30:23.099Z,73.47
2018-12-03T16:32:52.102Z,72.40
2018-12-03T16:35:21.112Z,74.60
2018-12-03T16:37:50.105Z,75.87
2018-12-03T16:40:19.496Z,77.27
2018-12-03T16:42:48.419Z,75.23
2018-12-03T16:45:17.350Z,74.70
2018-12-03T16:47:46.263Z,74.07
2018-12-03T16:50:15.133Z,76.23
2018-12-03T16:52:44.504Z,76.57
2018-12-03T16:55:13.767Z,73.30
2018-12-03T16:57:42.636Z,72.67
2018-12-03T17:00:13.691Z,77.60
2018-12-03T17:02:42.667Z,77.70
2018-12-03T17:05:11.675Z,77.90
2018-12-03T17:07:40.677Z,70.03
2018-12-03T17:10:12.348Z,69.90
2018-12-03T17:12:41.320Z,73.07
2018-12-03T17:15:11.283Z,68.00
2018-12-03T17:17:40.218Z,66.20
2018-12-03T17:20:16.258Z,63.40
2018-12-03T17:22:50.675Z,62.70
2018-12-03T17:25:22.742Z,69.33
2018-12-03T17:27:51.733Z,70.40
2018-12-03T17:30:20.657Z,68.80
2018-12-03T17:32:49.527Z,65.67
2018-12-03T17:35:19.143Z,67.87
2018-12-03T17:37:48.095Z,67.23
2018-12-03T17:40:17.020Z,65.47
2018-12-03T17:42:45.943Z,66.53
2018-12-03T17:45:14.891Z,64.30
2018-12-03T17:47:43.786Z,63.80
2018-12-03T17:50:12.827Z,65.10
2018-12-03T17:52:41.771Z,66.13
2018-12-03T17:55:10.771Z,66.43
2018-12-03T17:57:40.044Z,66.40
2018-12-03T18:00:13.302Z,64.97
2018-12-03T18:02:42.301Z,60.93
2018-12-03T18:05:11.267Z,67.63
2018-12-03T18:07:40.151Z,63.17
2018-12-03T18:10:11.016Z,66.80
2018-12-03T18:12:40.318Z,63.87
2018-12-03T18:15:10.223Z,65.13
2018-12-03T18:17:39.362Z,59.87
2018-12-03T18:20:09.916Z,61.80
2018-12-03T18:22:39.752Z,61.20
2018-12-03T18:25:09.305Z,62.97
2018-12-03T18:27:38.229Z,63.27
2018-12-03T18:30:08.924Z,59.13
2018-12-03T18:32:37.930Z,65.00
2018-12-03T18:35:07.539Z,62.50
2018-12-03T18:37:36.767Z,60.77
2018-12-03T18:40:07.035Z,64.73
2018-12-03T18:42:36.161Z,62.87
2018-12-03T18:45:06.308Z,65.03
2018-12-03T18:47:35.644Z,66.53
2018-12-03T18:50:15.636Z,67.53
2018-12-03T18:52:44.578Z,71.47
2018-12-03T18:55:13.488Z,64.47
2018-12-03T18:57:43.752Z,71.77
2018-12-03T19:00:14.614Z,68.80
2018-12-03T19:02:43.544Z,62.53
2018-12-03T19:05:12.551Z,68.67
2018-12-03T19:07:41.481Z,63.53
2018-12-03T19:10:10.406Z,60.30
2018-12-03T19:12:39.290Z,62.97
2018-12-03T19:15:08.187Z,63.47
2018-12-03T19:17:37.637Z,66.00
2018-12-03T19:20:08.568Z,69.43
2018-12-03T19:22:37.799Z,65.37
2018-12-03T19:25:07.787Z,67.87
2018-12-03T19:27:36.881Z,67.80
2018-12-03T19:30:09.040Z,68.60
2018-12-03T19:32:37.920Z,72.13
2018-12-03T19:35:07.031Z,74.87
2018-12-03T19:37:35.988Z,67.57
2018-12-03T19:40:05.870Z,71.70
2018-12-03T19:42:34.898Z,65.90
2018-12-03T19:45:04.125Z,68.77
2018-12-03T19:47:33.027Z,66.83
2018-12-03T19:50:02.080Z,65.77
2018-12-03T19:52:31.020Z,68.77
2018-12-03T19:55:00.411Z,66.03
2018-12-03T19:57:33.479Z,69.03
2018-12-03T20:00:02.458Z,64.27
2018-12-03T20:02:31.352Z,65.57
2018-12-03T20:05:04.469Z,63.73
2018-12-03T20:07:33.432Z,62.17
2018-12-03T20:10:02.344Z,59.53
2018-12-03T20:12:32.120Z,61.47
2018-12-03T20:15:01.068Z,61.33
2018-12-03T20:17:34.797Z,62.90
2018-12-03T20:20:04.664Z,63.80
2018-12-03T20:22:42.422Z,64.67
2018-12-03T20:25:14.055Z,69.10
2018-12-03T20:27:54.211Z,58.93
2018-12-03T20:30:47.538Z,57.37
2018-12-03T20:33:19.934Z,61.23
2018-12-03T20:38:33.128Z,58.30
2018-12-03T20:41:08.455Z,60.10
2018-12-03T20:43:38.677Z,60.23
2018-12-03T20:46:33.015Z,57.57
2018-12-03T20:49:14.085Z,54.67
2018-12-03T20:51:43.481Z,56.30
2018-12-03T20:54:12.435Z,55.90
2018-12-03T20:56:41.384Z,55.40
2018-12-03T20:59:10.232Z,52.50
2018-12-03T21:01:42.878Z,53.53
2018-12-03T21:04:11.836Z,54.63
2018-12-03T21:06:40.764Z,57.30
2018-12-03T21:09:09.622Z,55.40
2018-12-03T21:11:39.184Z,52.23
2018-12-03T21:14:08.098Z,54.00
2018-12-03T21:16:36.958Z,53.43
2018-12-03T21:19:05.848Z,47.20
2018-12-03T21:21:34.761Z,48.63
2018-12-03T21:24:03.915Z,53.00
2018-12-03T21:26:32.988Z,51.50
2018-12-03T21:29:01.853Z,48.37
2018-12-03T21:31:30.879Z,51.83
2018-12-03T21:34:00.600Z,51.20
2018-12-03T21:36:29.491Z,48.57
2018-12-03T21:38:58.360Z,46.57
2018-12-03T21:41:27.293Z,44.97
2018-12-03T21:43:56.119Z,45.13
2018-12-03T21:46:25.007Z,43.27
2018-12-03T21:48:54.153Z,44.23
2018-12-03T21:51:23.029Z,45.80
2018-12-03T21:53:51.937Z,45.60
2018-12-03T21:56:20.971Z,44.00
2018-12-03T21:58:49.859Z,45.80
2018-12-03T22:01:18.748Z,47.00
2018-12-03T22:03:47.686Z,47.40
2018-12-03T22:06:16.574Z,52.93
2018-12-03T22:08:45.780Z,48.80
2018-12-03T22:11:14.729Z,50.43
2018-12-03T22:13:43.589Z,49.57
2018-12-03T22:16:12.574Z,52.67
2018-12-03T22:18:43.400Z,52.70
2018-12-03T22:21:12.331Z,49.97
2018-12-03T22:23:41.233Z,53.03
2018-12-03T22:26:10.174Z,49.07
2018-12-03T22:28:39.116Z,50.67
2018-12-03T22:31:07.994Z,46.53
2018-12-03T22:33:36.891Z,48.20
2018-12-03T22:36:05.762Z,49.10
2018-12-03T22:38:34.647Z,52.53
2018-12-03T22:41:03.551Z,61.57
2018-12-03T22:43:32.388Z,56.53
2018-12-03T22:46:01.234Z,53.03
2018-12-03T22:48:30.133Z,50.27
2018-12-03T22:50:58.981Z,48.73
2018-12-03T22:53:27.857Z,50.57
2018-12-03T22:55:56.822Z,45.47
2018-12-03T22:58:25.706Z,47.13
2018-12-03T23:01:01.763Z,45.57
2018-12-03T23:03:30.620Z,49.30
2018-12-03T23:05:59.547Z,48.40
2018-12-03T23:08:28.451Z,44.50
2018-12-03T23:10:57.310Z,46.67
2018-12-03T23:13:26.203Z,50.70
2018-12-03T23:15:55.112Z,47.57
2018-12-03T23:18:23.979Z,48.33
2018-12-03T23:20:52.858Z,48.63
2018-12-03T23:23:21.800Z,50.53
2018-12-03T23:25:51.101Z,53.73
2018-12-03T23:28:19.973Z,50.33
2018-12-03T23:30:48.908Z,49.53
2018-12-03T23:33:17.747Z,49.67
2018-12-03T23:35:46.676Z,50.53
2018-12-03T23:38:15.613Z,51.20
2018-12-03T23:40:44.519Z,56.33
2018-12-03T23:43:13.453Z,48.33
2018-12-03T23:45:42.390Z,51.40
2018-12-03T23:48:11.415Z,48.27
2018-12-03T23:50:40.420Z,47.77
2018-12-03T23:53:09.303Z,48.00
2018-12-03T23:55:38.371Z,47.03
2018-12-03T23:58:07.309Z,48.80
